Thursday, October 18, 2018, 10:03 AM EDT
Back to Local

KCAR, Caribou Municipal Airport

Location: Caribou, ME, United States Lat: 46.867
Local Time: 10:03 AM EDT (14:03 GMT) Lon: -68.017
Time Zone: US/Eastern Elev: 626 ft

Show me the last for .
Show Decoded

2018-10-18 08:54 METAR KCAR 181254Z AUTO 29013G28KT 240V310 10SM FEW025 SCT031 01/M05 A2976 RMK
                 AO2 PK WND 31031/1244 SLP088 T00061050 =
2018-10-18 08:20 METAR KCAR 181220Z AUTO 29014G23KT 10SM OVC029 00/M04 A2975 RMK AO2 T00001044 =
2018-10-18 07:54 METAR KCAR 181154Z AUTO 28011G22KT 10SM SCT028 BKN038 BKN048 00/M05 A2974 RMK
                 AO2 SLP081 70003 T00001050 10006 21006 53020 =
2018-10-18 06:54 METAR KCAR 181054Z AUTO 28012G21KT 250V310 10SM CLR M01/M06 A2972 RMK AO2 SLP074
                 T10061056 =
2018-10-18 05:54 METAR KCAR 180954Z AUTO 29010G18KT 10SM CLR M01/M06 A2970 RMK AO2 SLP067
                 T10061056 =
2018-10-18 04:54 METAR KCAR 180854Z AUTO 29009G19KT 10SM CLR 00/M06 A2968 RMK AO2 SLP059
                 T00001056 53014 =
2018-10-18 03:54 METAR KCAR 180754Z AUTO VRB04KT 10SM CLR M01/M06 A2967 RMK AO2 SLP056 T10061056
                 =
2018-10-18 02:54 METAR KCAR 180654Z AUTO VRB05KT 10SM CLR 00/M05 A2965 RMK AO2 SLP049 T00001050 =
2018-10-18 01:54 METAR KCAR 180554Z AUTO 30007G15KT 10SM CLR 01/M04 A2964 RMK AO2 SLP046
                 T00061044 10033 20006 53009 =
2018-10-18 00:54 METAR KCAR 180454Z AUTO 30011G18KT 10SM CLR 01/M04 A2963 RMK AO2 SLP041
                 T00111039 400831006 =
2018-10-17 23:54 METAR KCAR 180354Z AUTO 29009G15KT 10SM FEW028 FEW090 OVC110 02/M02 A2961 RMK
                 AO2 SLP036 T00221017 =
2018-10-17 22:54 METAR KCAR 180254Z AUTO VRB04KT 10SM FEW055 BKN080 BKN100 01/M02 A2961 RMK AO2
                 SLP036 T00111017 51008 =
2018-10-17 21:54 METAR KCAR 180154Z AUTO 25004KT 10SM CLR 01/M01 A2961 RMK AO2 SLP034 T00061011 =
2018-10-17 20:54 METAR KCAR 180054Z AUTO 26003KT 10SM FEW025 FEW032 SCT080 02/M01 A2960 RMK AO2
                 SLP032 T00221006 =
2018-10-17 19:54 METAR KCAR 172354Z AUTO VRB03KT 10SM BKN065 03/01 A2959 RMK AO2 SLP028 60003
                 T00330006 10083 20028 51018 =
2018-10-17 19:01 METAR KCAR 172301Z AUTO 30007G16KT 10SM SCT019 BKN095 04/01 A2959 RMK AO2
                 T00390006 =
2018-10-17 18:54 METAR KCAR 172254Z AUTO 30010G16KT 10SM SCT019 BKN024 BKN055 04/01 A2958 RMK AO2
                 SLP026 T00440011 =
2018-10-17 17:54 METAR KCAR 172154Z AUTO 26006KT 10SM CLR 05/01 A2955 RMK AO2 RAE03 SLP014 P0000
                 T00500011 =
2018-10-17 16:54 METAR KCAR 172054Z AUTO 24011G20KT 10SM -RA FEW031 BKN070 OVC090 07/02 A2953 RMK
                 AO2 RAB43 SLP009 P0000 60003 T00670017 53001 =
2018-10-17 15:54 METAR KCAR 171954Z AUTO 25009KT 10SM CLR 07/03 A2953 RMK AO2 RAE28 SLP008 P0002
                 T00720028 =
2018-10-17 15:32 METAR KCAR 171932Z AUTO 25009KT 10SM FEW022 SCT035 BKN047 07/03 A2953 RMK AO2
                 RAE28 P0002 T00720028 =
2018-10-17 14:54 METAR KCAR 171854Z AUTO 22008KT 5SM -RA BKN026 OVC031 07/04 A2953 RMK AO2 RAB09
                 SLP008 P0001 T00720039 =
2018-10-17 14:44 METAR KCAR 171844Z AUTO 22008G18KT 6SM -RA BKN026 OVC034 08/03 A2953 RMK AO2
                 RAB09 P0000 T00780033 =
2018-10-17 13:54 METAR KCAR 171754Z AUTO 20009G19KT 10SM BKN035 BKN042 OVC070 08/02 A2953 RMK AO2
                 SLP009 T00830022 10083 20028 58034 =
2018-10-17 12:54 METAR KCAR 171654Z AUTO 19012G20KT 10SM BKN031 BKN060 OVC080 07/02 A2957 RMK AO2
                 SLP020 T00720017 =
2018-10-17 11:54 METAR KCAR 171554Z AUTO 19009G16KT 10SM BKN070 OVC085 07/01 A2960 RMK AO2 SLP033
                 T00720011 =
2018-10-17 10:54 METAR KCAR 171454Z AUTO 19006KT 10SM OVC060 07/01 A2964 RMK AO2 SLP044 T00720006
                 58020 =

Support USWX by starting your Amazon purchase here.